Time;durP1;ratioP1;P1;durP2;ratioP2;P2;SDS_P1;SDS_P2;PMS_P1;PMS_P2;Temp;Humidity;BMP_temperature;BMP_pressure;BME280_temperature;BME280_humidity;BME280_pressure;Samples;Min_cycle;Max_cycle;Signal;HPM_P1;HPM_P2
2022/06/27 00:01:41;;;;;;;3.00;2.70;;;;;;;;;;4565378;28;20032;-72
2022/06/27 00:03:52;;;;;;;3.42;2.65;;;;;;;;;;4563373;28;20059;-73
2022/06/27 00:06:02;;;;;;;3.05;2.70;;;;;;;;;;4562623;28;20047;-72
2022/06/27 00:08:13;;;;;;;2.95;2.65;;;;;;;;;;4564252;28;20029;-72
2022/06/27 00:10:23;;;;;;;3.92;2.92;;;;;;;;;;4579270;27;20493;-71
2022/06/27 00:12:34;;;;;;;3.10;2.80;;;;;;;;;;4564822;28;20032;-72
2022/06/27 00:14:45;;;;;;;4.68;3.00;;;;;;;;;;4563407;27;20040;-72
2022/06/27 00:16:55;;;;;;;3.70;3.17;;;;;;;;;;4563763;28;20144;-71
2022/06/27 00:19:05;;;;;;;3.42;3.13;;;;;;;;;;4564338;28;20031;-72
2022/06/27 00:21:16;;;;;;;3.83;3.47;;;;;;;;;;4562730;28;23301;-71
2022/06/27 00:23:26;;;;;;;4.63;3.70;;;;;;;;;;4563022;27;20572;-71
2022/06/27 00:25:37;;;;;;;3.78;3.38;;;;;;;;;;4563003;27;20080;-71
2022/06/27 00:27:47;;;;;;;4.22;3.83;;;;;;;;;;4565768;28;20427;-71
2022/06/27 00:29:58;;;;;;;4.53;4.10;;;;;;;;;;4564382;28;20770;-72
2022/06/27 00:32:09;;;;;;;4.13;3.72;;;;;;;;;;4566478;27;20599;-71
2022/06/27 00:34:21;;;;;;;4.45;4.05;;;;;;;;;;4564994;28;20043;-71
2022/06/27 00:36:32;;;;;;;4.55;4.15;;;;;;;;;;4572193;28;20094;-72
2022/06/27 00:38:42;;;;;;;4.45;4.05;;;;;;;;;;4571836;28;20527;-72
2022/06/27 00:40:53;;;;;;;4.60;4.20;;;;;;;;;;4564170;27;20040;-72
2022/06/27 00:43:03;;;;;;;5.05;4.40;;;;;;;;;;4563182;28;20388;-71
2022/06/27 00:45:14;;;;;;;4.90;4.40;;;;;;;;;;4564810;27;20070;-71
2022/06/27 00:47:24;;;;;;;5.38;4.53;;;;;;;;;;4563162;28;20043;-71
2022/06/27 00:49:36;;;;;;;5.07;4.57;;;;;;;;;;4564091;28;20098;-72
2022/06/27 00:51:46;;;;;;;5.13;4.63;;;;;;;;;;4562585;28;20098;-71
2022/06/27 00:53:57;;;;;;;4.88;4.45;;;;;;;;;;4579983;27;20791;-71
2022/06/27 00:56:07;;;;;;;5.65;5.00;;;;;;;;;;4563091;27;20046;-71
2022/06/27 00:58:18;;;;;;;5.18;4.68;;;;;;;;;;4564384;27;20543;-73
2022/06/27 01:00:29;;;;;;;5.03;4.53;;;;;;;;;;4565738;28;20093;-72
2022/06/27 01:02:39;;;;;;;4.88;4.20;;;;;;;;;;4569097;27;20327;-73
2022/06/27 01:04:50;;;;;;;5.22;4.70;;;;;;;;;;4564254;28;20032;-72
2022/06/27 01:07:01;;;;;;;4.95;4.55;;;;;;;;;;4563395;28;20433;-73
2022/06/27 01:09:11;;;;;;;5.00;4.50;;;;;;;;;;4563299;28;20028;-72
2022/06/27 01:11:22;;;;;;;4.72;4.30;;;;;;;;;;4546595;28;20102;-72
2022/06/27 01:13:33;;;;;;;5.20;4.57;;;;;;;;;;4561929;28;20024;-72
2022/06/27 01:15:45;;;;;;;5.32;4.57;;;;;;;;;;4562943;28;20488;-72
2022/06/27 01:17:55;;;;;;;5.10;4.35;;;;;;;;;;4563073;28;20032;-71
2022/06/27 01:20:07;;;;;;;4.90;4.40;;;;;;;;;;4561267;28;20032;-72
2022/06/27 01:22:19;;;;;;;4.90;4.32;;;;;;;;;;4554875;28;20040;-72
2022/06/27 01:24:29;;;;;;;4.82;4.00;;;;;;;;;;4560826;28;20031;-72
2022/06/27 01:26:43;;;;;;;4.47;4.07;;;;;;;;;;4564617;27;20040;-73
2022/06/27 01:28:54;;;;;;;4.70;4.28;;;;;;;;;;4571540;27;20583;-72
2022/06/27 01:31:06;;;;;;;4.40;4.00;;;;;;;;;;4549866;28;20146;-72
2022/06/27 01:33:17;;;;;;;4.43;4.00;;;;;;;;;;4557539;28;20781;-72
2022/06/27 01:35:27;;;;;;;4.15;3.75;;;;;;;;;;4564720;28;20206;-72
2022/06/27 01:37:38;;;;;;;4.65;4.05;;;;;;;;;;4567509;28;20020;-71
2022/06/27 01:39:48;;;;;;;4.55;4.15;;;;;;;;;;4574277;28;20058;-72
2022/06/27 01:42:02;;;;;;;4.97;4.22;;;;;;;;;;4568742;28;20032;-73
2022/06/27 01:44:14;;;;;;;5.00;3.90;;;;;;;;;;4556981;28;20075;-72
2022/06/27 01:46:46;;;;;;;4.97;4.15;;;;;;;;;;4565233;28;20032;-71
2022/06/27 01:48:57;;;;;;;4.90;4.40;;;;;;;;;;4565176;28;20028;-72
2022/06/27 01:51:08;;;;;;;5.55;4.40;;;;;;;;;;4567494;28;20578;-72
2022/06/27 01:53:19;;;;;;;5.10;4.60;;;;;;;;;;4550435;28;20574;-72
2022/06/27 01:55:29;;;;;;;5.53;4.18;;;;;;;;;;4566714;28;20055;-72
2022/06/27 01:57:41;;;;;;;4.72;4.22;;;;;;;;;;4568009;28;20040;-72
2022/06/27 01:59:52;;;;;;;4.85;4.32;;;;;;;;;;4540747;28;20934;-73
2022/06/27 02:02:04;;;;;;;4.93;4.43;;;;;;;;;;4574814;27;20090;-70
2022/06/27 02:04:15;;;;;;;4.40;4.00;;;;;;;;;;4573666;28;20036;-72
2022/06/27 02:06:28;;;;;;;4.57;4.18;;;;;;;;;;4573864;28;20048;-72
2022/06/27 02:08:45;;;;;;;4.97;4.40;;;;;;;;;;4568538;28;20032;-72
2022/06/27 02:10:58;;;;;;;4.43;4.03;;;;;;;;;;4563824;28;20050;-73
2022/06/27 02:13:09;;;;;;;5.00;4.50;;;;;;;;;;4574540;28;20043;-72
2022/06/27 02:15:20;;;;;;;5.00;4.10;;;;;;;;;;4566793;27;20044;-72
2022/06/27 02:17:30;;;;;;;5.10;4.60;;;;;;;;;;4557724;28;20451;-71
2022/06/27 02:19:41;;;;;;;5.13;4.65;;;;;;;;;;4554236;28;20144;-72
2022/06/27 02:21:52;;;;;;;5.00;4.35;;;;;;;;;;4565242;28;20036;-72
2022/06/27 02:24:03;;;;;;;5.10;4.60;;;;;;;;;;4564202;28;20036;-72
2022/06/27 02:26:14;;;;;;;5.47;4.90;;;;;;;;;;4548912;28;20032;-72
2022/06/27 02:28:27;;;;;;;4.95;4.55;;;;;;;;;;4581434;27;20101;-72
2022/06/27 02:30:38;;;;;;;5.20;4.60;;;;;;;;;;4573930;28;20081;-72
2022/06/27 02:32:48;;;;;;;5.40;4.85;;;;;;;;;;4563927;28;20098;-73
2022/06/27 02:34:59;;;;;;;5.03;4.53;;;;;;;;;;4573457;28;20344;-72
2022/06/27 02:37:12;;;;;;;4.93;4.50;;;;;;;;;;4572990;28;20571;-71
2022/06/27 02:39:25;;;;;;;5.53;5.03;;;;;;;;;;4564787;28;20044;-71
2022/06/27 02:41:40;;;;;;;5.50;5.00;;;;;;;;;;4549641;28;20029;-72
2022/06/27 02:43:52;;;;;;;5.88;4.97;;;;;;;;;;4564375;27;20583;-72
2022/06/27 02:46:03;;;;;;;6.40;5.18;;;;;;;;;;4580760;27;20028;-71
2022/06/27 02:48:16;;;;;;;5.40;4.75;;;;;;;;;;4532328;28;20580;-71
2022/06/27 02:50:29;;;;;;;5.45;4.95;;;;;;;;;;4563498;28;21039;-71
2022/06/27 02:52:45;;;;;;;5.50;5.00;;;;;;;;;;4549687;28;20037;-72
2022/06/27 02:55:06;;;;;;;5.60;5.10;;;;;;;;;;4557146;28;20037;-71
2022/06/27 02:57:32;;;;;;;6.50;5.25;;;;;;;;;;4581065;27;20036;-71
2022/06/27 02:59:48;;;;;;;5.87;5.27;;;;;;;;;;4556348;28;20067;-72
2022/06/27 03:01:59;;;;;;;6.07;5.47;;;;;;;;;;4551689;28;20612;-71
2022/06/27 03:04:30;;;;;;;5.53;5.03;;;;;;;;;;4564086;28;20620;-71
2022/06/27 03:06:41;;;;;;;5.60;5.10;;;;;;;;;;4563977;28;20036;-71
2022/06/27 03:08:52;;;;;;;6.00;5.40;;;;;;;;;;4562259;28;20592;-70
2022/06/27 03:11:02;;;;;;;6.70;6.00;;;;;;;;;;4565182;28;20045;-71
2022/06/27 03:13:14;;;;;;;6.88;6.15;;;;;;;;;;4566815;28;20021;-71
2022/06/27 03:15:24;;;;;;;6.40;5.80;;;;;;;;;;4566242;28;20040;-71
2022/06/27 03:17:37;;;;;;;6.57;5.95;;;;;;;;;;4572791;28;20063;-72
2022/06/27 03:20:06;;;;;;;6.38;5.78;;;;;;;;;;4564573;28;20056;-71
2022/06/27 03:22:28;;;;;;;6.53;5.88;;;;;;;;;;4572417;28;20131;-71
2022/06/27 03:24:39;;;;;;;6.40;5.75;;;;;;;;;;4567560;28;20036;-71
2022/06/27 03:26:49;;;;;;;7.10;6.00;;;;;;;;;;4568115;28;20059;-71
2022/06/27 03:29:04;;;;;;;6.63;5.93;;;;;;;;;;4566281;28;20098;-71
2022/06/27 03:31:16;;;;;;;6.70;5.95;;;;;;;;;;4565844;28;20048;-71
2022/06/27 03:33:31;;;;;;;6.78;6.07;;;;;;;;;;4556941;28;20725;-71
2022/06/27 03:35:48;;;;;;;6.43;5.70;;;;;;;;;;4550806;28;20064;-72
2022/06/27 03:38:01;;;;;;;6.30;5.70;;;;;;;;;;4567495;28;20626;-71
2022/06/27 03:40:13;;;;;;;6.75;6.15;;;;;;;;;;4548895;28;20118;-71
2022/06/27 03:42:28;;;;;;;6.83;5.90;;;;;;;;;;4568132;28;20119;-71
2022/06/27 03:44:39;;;;;;;6.50;5.90;;;;;;;;;;4564878;28;20028;-71
2022/06/27 03:46:50;;;;;;;6.25;5.65;;;;;;;;;;4565824;28;20039;-71
2022/06/27 03:51:42;;;;;;;6.90;6.20;;;;;;;;;;4562430;28;20571;-71
2022/06/27 03:53:53;;;;;;;6.72;6.03;;;;;;;;;;4572236;27;20024;-70
2022/06/27 03:56:04;;;;;;;6.40;5.80;;;;;;;;;;4564759;28;20036;-71
2022/06/27 03:58:14;;;;;;;6.47;5.85;;;;;;;;;;4565954;28;20020;-71
2022/06/27 04:00:27;;;;;;;6.60;5.90;;;;;;;;;;4564395;28;20024;-70
2022/06/27 04:02:39;;;;;;;6.47;5.88;;;;;;;;;;4573456;27;20023;-71
2022/06/27 04:05:08;;;;;;;6.43;5.72;;;;;;;;;;4564176;28;20851;-71
2022/06/27 04:07:19;;;;;;;6.97;5.80;;;;;;;;;;4563603;28;20032;-71
2022/06/27 04:09:30;;;;;;;6.78;5.95;;;;;;;;;;4566093;27;20051;-71
2022/06/27 04:11:40;;;;;;;6.22;5.63;;;;;;;;;;4561617;28;20667;-71
2022/06/27 04:13:55;;;;;;;6.20;5.60;;;;;;;;;;4567258;28;20028;-72
2022/06/27 04:16:24;;;;;;;6.70;6.00;;;;;;;;;;4561226;28;20068;-71
2022/06/27 04:19:07;;;;;;;7.40;6.70;;;;;;;;;;4542151;27;20050;-71
2022/06/27 04:21:36;;;;;;;7.05;6.35;;;;;;;;;;4562479;28;20215;-71
2022/06/27 04:23:57;;;;;;;6.45;5.65;;;;;;;;;;4566026;28;20036;-71
2022/06/27 04:26:21;;;;;;;6.28;5.45;;;;;;;;;;4564669;27;20031;-72
2022/06/27 04:28:31;;;;;;;7.47;6.10;;;;;;;;;;4563533;27;20043;-71
2022/06/27 04:30:42;;;;;;;6.68;5.85;;;;;;;;;;4562741;27;20057;-71
2022/06/27 04:32:52;;;;;;;6.20;5.60;;;;;;;;;;4566322;28;20028;-71
2022/06/27 04:35:04;;;;;;;6.43;5.82;;;;;;;;;;4564752;27;20072;-70
2022/06/27 04:37:16;;;;;;;6.40;5.72;;;;;;;;;;4554896;28;20028;-71
2022/06/27 04:39:49;;;;;;;7.50;6.10;;;;;;;;;;4562458;27;20066;-72
2022/06/27 04:42:11;;;;;;;7.40;5.95;;;;;;;;;;4552619;28;20788;-71
2022/06/27 04:44:22;;;;;;;7.05;6.35;;;;;;;;;;4549136;28;20063;-71
2022/06/27 04:46:33;;;;;;;6.15;5.55;;;;;;;;;;4573924;27;20081;-70
2022/06/27 04:48:49;;;;;;;6.88;6.18;;;;;;;;;;4561726;28;20028;-71
2022/06/27 04:51:01;;;;;;;6.32;5.72;;;;;;;;;;4572586;28;20044;-72
2022/06/27 04:53:11;;;;;;;6.50;5.90;;;;;;;;;;4565754;28;20035;-71
2022/06/27 04:55:22;;;;;;;6.13;5.53;;;;;;;;;;4562395;28;20519;-72
2022/06/27 04:57:33;;;;;;;5.95;5.32;;;;;;;;;;4563114;28;20036;-72
2022/06/27 04:59:44;;;;;;;6.55;5.60;;;;;;;;;;4567001;28;20039;-71
2022/06/27 05:02:26;;;;;;;6.82;5.78;;;;;;;;;;4565273;28;20029;-72
2022/06/27 05:04:37;;;;;;;6.50;5.80;;;;;;;;;;4566407;28;20540;-70
2022/06/27 05:06:49;;;;;;;6.47;5.88;;;;;;;;;;4570825;27;20036;-71
2022/06/27 05:09:00;;;;;;;6.72;6.03;;;;;;;;;;4561811;28;20041;-71
2022/06/27 05:11:10;;;;;;;6.75;6.13;;;;;;;;;;4565705;28;20042;-71
2022/06/27 05:13:21;;;;;;;6.82;6.13;;;;;;;;;;4565727;28;20036;-71
2022/06/27 05:15:31;;;;;;;6.97;6.25;;;;;;;;;;4564878;28;20133;-71
2022/06/27 05:17:43;;;;;;;6.88;6.00;;;;;;;;;;4565272;28;20032;-71
2022/06/27 05:19:54;;;;;;;7.05;6.13;;;;;;;;;;4564458;28;20024;-71
2022/06/27 05:22:05;;;;;;;6.75;6.00;;;;;;;;;;4570994;28;20476;-71
2022/06/27 05:24:17;;;;;;;6.68;5.97;;;;;;;;;;4564811;28;20104;-72
2022/06/27 05:26:28;;;;;;;6.28;5.65;;;;;;;;;;4564667;28;20076;-70
2022/06/27 05:28:39;;;;;;;6.88;6.18;;;;;;;;;;4564251;27;20040;-70
2022/06/27 05:30:52;;;;;;;6.82;6.13;;;;;;;;;;4564773;28;20048;-72
2022/06/27 05:33:02;;;;;;;7.22;5.95;;;;;;;;;;4572678;28;20028;-71
2022/06/27 05:35:13;;;;;;;6.97;6.28;;;;;;;;;;4570260;28;20055;-70
2022/06/27 05:37:24;;;;;;;6.40;5.63;;;;;;;;;;4561987;28;20037;-71
2022/06/27 05:39:35;;;;;;;7.25;6.03;;;;;;;;;;4565780;28;20029;-72
2022/06/27 05:41:46;;;;;;;6.30;5.57;;;;;;;;;;4569035;28;20451;-71
2022/06/27 05:44:03;;;;;;;6.35;5.68;;;;;;;;;;4565277;28;20048;-71
2022/06/27 05:46:13;;;;;;;6.40;5.70;;;;;;;;;;4559898;28;20024;-72
2022/06/27 05:48:33;;;;;;;7.38;6.05;;;;;;;;;;4559175;28;20044;-71
2022/06/27 05:51:13;;;;;;;6.82;6.13;;;;;;;;;;4556119;27;20511;-71
2022/06/27 05:53:28;;;;;;;6.40;5.65;;;;;;;;;;4547418;28;20163;-70
2022/06/27 05:55:40;;;;;;;6.68;5.82;;;;;;;;;;4565089;28;20047;-71
2022/06/27 05:57:52;;;;;;;6.13;5.35;;;;;;;;;;4562054;28;20024;-70
2022/06/27 06:00:03;;;;;;;6.15;5.55;;;;;;;;;;4564210;28;20075;-70
2022/06/27 06:02:25;;;;;;;6.63;5.88;;;;;;;;;;4560938;28;20051;-70
2022/06/27 06:04:37;;;;;;;6.47;5.78;;;;;;;;;;4552299;28;20606;-70
2022/06/27 06:06:49;;;;;;;6.75;6.05;;;;;;;;;;4546769;28;20028;-71
2022/06/27 06:09:01;;;;;;;6.75;6.00;;;;;;;;;;4571224;27;20036;-70
2022/06/27 06:11:15;;;;;;;6.43;5.78;;;;;;;;;;4565194;27;20032;-71
2022/06/27 06:13:25;;;;;;;6.93;6.22;;;;;;;;;;4560358;28;20028;-70
2022/06/27 06:15:40;;;;;;;7.18;6.20;;;;;;;;;;4564067;28;20020;-71
2022/06/27 06:17:52;;;;;;;6.90;6.20;;;;;;;;;;4532560;28;20029;-70
2022/06/27 06:20:05;;;;;;;7.30;6.32;;;;;;;;;;4568378;28;20139;-70
2022/06/27 06:22:16;;;;;;;7.40;6.70;;;;;;;;;;4557533;28;20033;-70
2022/06/27 06:24:27;;;;;;;7.90;7.10;;;;;;;;;;4568582;28;20056;-71
2022/06/27 06:26:37;;;;;;;7.68;6.88;;;;;;;;;;4575069;28;20852;-70
2022/06/27 06:28:49;;;;;;;8.05;7.25;;;;;;;;;;4568060;28;20484;-70
2022/06/27 06:31:03;;;;;;;7.05;6.35;;;;;;;;;;4560257;28;20049;-70
2022/06/27 06:33:17;;;;;;;7.22;6.53;;;;;;;;;;4573962;28;20634;-70
2022/06/27 06:35:30;;;;;;;7.53;6.72;;;;;;;;;;4556437;28;20032;-70
2022/06/27 06:37:41;;;;;;;7.50;6.68;;;;;;;;;;4572662;27;21086;-68
2022/06/27 06:39:52;;;;;;;7.18;6.47;;;;;;;;;;4565387;28;20028;-68
2022/06/27 06:42:03;;;;;;;7.80;7.00;;;;;;;;;;4574768;28;20040;-68
2022/06/27 06:44:17;;;;;;;7.57;6.78;;;;;;;;;;4556928;28;20033;-68
2022/06/27 06:46:34;;;;;;;7.18;6.45;;;;;;;;;;4562486;28;20040;-68
2022/06/27 06:48:54;;;;;;;8.30;7.03;;;;;;;;;;4564186;28;20059;-67
2022/06/27 06:51:05;;;;;;;7.70;7.00;;;;;;;;;;4565826;28;20041;-68
2022/06/27 06:53:16;;;;;;;7.63;6.82;;;;;;;;;;4565230;28;20044;-68
2022/06/27 06:55:29;;;;;;;8.18;7.38;;;;;;;;;;4565313;28;20119;-68
2022/06/27 06:57:39;;;;;;;7.72;6.90;;;;;;;;;;4564273;28;20861;-67
2022/06/27 06:59:50;;;;;;;8.15;7.32;;;;;;;;;;4564782;27;20081;-67
2022/06/27 07:02:01;;;;;;;7.68;6.88;;;;;;;;;;4566018;28;20046;-68
2022/06/27 07:04:12;;;;;;;7.85;7.05;;;;;;;;;;4565834;28;20459;-67
2022/06/27 07:06:25;;;;;;;6.82;6.13;;;;;;;;;;4564177;28;20894;-68
2022/06/27 07:08:37;;;;;;;6.95;6.25;;;;;;;;;;4564579;28;20043;-69
2022/06/27 07:10:48;;;;;;;6.25;5.65;;;;;;;;;;4564942;28;20028;-68
2022/06/27 07:12:58;;;;;;;6.60;6.00;;;;;;;;;;4564790;28;20032;-68
2022/06/27 07:15:09;;;;;;;6.40;5.80;;;;;;;;;;4564992;27;20075;-68
2022/06/27 07:17:24;;;;;;;6.40;5.80;;;;;;;;;;4564637;27;20083;-68
2022/06/27 07:19:36;;;;;;;6.50;5.78;;;;;;;;;;4548963;28;20187;-68
2022/06/27 07:21:46;;;;;;;7.05;6.35;;;;;;;;;;4565361;28;20036;-68
2022/06/27 07:23:58;;;;;;;6.40;5.70;;;;;;;;;;4564810;28;20504;-68
2022/06/27 07:26:09;;;;;;;7.38;6.28;;;;;;;;;;4564459;28;20051;-68
2022/06/27 07:28:25;;;;;;;6.85;6.15;;;;;;;;;;4563470;28;20040;-68
2022/06/27 07:30:35;;;;;;;7.15;6.45;;;;;;;;;;4563617;27;20032;-68
2022/06/27 07:32:46;;;;;;;7.85;7.05;;;;;;;;;;4563452;28;21016;-67
2022/06/27 07:34:58;;;;;;;7.30;6.60;;;;;;;;;;4566514;28;20036;-68
2022/06/27 07:37:09;;;;;;;8.98;7.35;;;;;;;;;;4565338;27;20097;-68
2022/06/27 07:39:20;;;;;;;8.30;7.50;;;;;;;;;;4564326;28;20035;-68
2022/06/27 07:41:32;;;;;;;8.70;7.38;;;;;;;;;;4563751;28;20040;-68
2022/06/27 07:43:44;;;;;;;8.68;7.60;;;;;;;;;;4563845;28;20033;-68
2022/06/27 07:45:56;;;;;;;8.18;7.28;;;;;;;;;;4565729;28;20028;-68
2022/06/27 07:48:07;;;;;;;9.30;8.05;;;;;;;;;;4562466;27;20156;-67
2022/06/27 07:55:18;;;;;;;8.27;7.30;;;;;;;;;;4564454;28;20508;-68
2022/06/27 07:57:28;;;;;;;8.05;7.30;;;;;;;;;;4564140;28;20029;-68
2022/06/27 07:59:39;;;;;;;8.38;7.47;;;;;;;;;;4564335;27;20072;-68
2022/06/27 08:01:49;;;;;;;7.75;6.95;;;;;;;;;;4562784;28;20166;-68
2022/06/27 08:04:01;;;;;;;8.23;7.38;;;;;;;;;;4563334;28;20115;-68
2022/06/27 08:06:21;;;;;;;7.82;7.03;;;;;;;;;;4562281;28;20039;-68
2022/06/27 08:08:33;;;;;;;8.10;7.30;;;;;;;;;;4566253;28;20662;-68
2022/06/27 08:10:43;;;;;;;8.00;7.20;;;;;;;;;;4561617;28;20535;-67
2022/06/27 08:12:54;;;;;;;7.90;6.97;;;;;;;;;;4563134;27;20031;-68
2022/06/27 08:15:06;;;;;;;7.70;6.78;;;;;;;;;;4566731;28;20032;-68
2022/06/27 08:17:18;;;;;;;7.35;6.65;;;;;;;;;;4563091;28;20592;-68
2022/06/27 08:19:29;;;;;;;7.93;7.13;;;;;;;;;;4563407;28;20040;-68
2022/06/27 08:21:41;;;;;;;7.72;6.93;;;;;;;;;;4563889;27;20037;-68
2022/06/27 08:23:58;;;;;;;7.50;6.70;;;;;;;;;;4563647;28;20870;-68
2022/06/27 08:26:09;;;;;;;;;;;;;;;;;;4565052;28;20796;-67
2022/06/27 08:28:22;;;;;;;7.57;6.13;;;;;;;;;;4563694;28;21006;-68
2022/06/27 08:30:33;;;;;;;8.10;6.80;;;;;;;;;;4566088;28;20086;-67
2022/06/27 08:32:43;;;;;;;7.72;6.93;;;;;;;;;;4562360;27;20048;-67
2022/06/27 08:34:54;;;;;;;7.82;6.80;;;;;;;;;;4563696;28;20032;-69
2022/06/27 08:37:06;;;;;;;9.15;7.50;;;;;;;;;;4564463;28;20638;-67
2022/06/27 08:39:17;;;;;;;9.70;8.27;;;;;;;;;;4562267;28;20660;-67
2022/06/27 08:41:27;;;;;;;11.10;9.23;;;;;;;;;;4563609;27;20868;-67
2022/06/27 08:43:38;;;;;;;9.75;8.75;;;;;;;;;;4562294;27;20493;-67
2022/06/27 08:45:51;;;;;;;11.27;9.02;;;;;;;;;;4565277;28;20036;-67
2022/06/27 08:48:07;;;;;;;8.80;7.90;;;;;;;;;;4565091;28;20303;-67
2022/06/27 08:50:20;;;;;;;9.47;8.57;;;;;;;;;;4563430;28;20660;-67
2022/06/27 08:52:32;;;;;;;8.90;7.35;;;;;;;;;;4563564;27;20051;-66
2022/06/27 08:54:44;;;;;;;9.43;7.90;;;;;;;;;;4563024;28;20572;-67
2022/06/27 08:56:55;;;;;;;9.02;8.13;;;;;;;;;;4563906;28;20612;-67
2022/06/27 08:59:06;;;;;;;8.27;7.18;;;;;;;;;;4566949;28;20033;-67
2022/06/27 09:01:27;;;;;;;7.35;6.60;;;;;;;;;;4562760;28;20028;-67
2022/06/27 09:03:37;;;;;;;7.72;6.88;;;;;;;;;;4561945;28;20127;-67
2022/06/27 09:05:59;;;;;;;7.45;6.65;;;;;;;;;;4563232;28;20036;-67
2022/06/27 09:08:10;;;;;;;7.93;6.38;;;;;;;;;;4566492;28;20756;-67
2022/06/27 09:10:26;;;;;;;6.90;6.15;;;;;;;;;;4563591;27;20070;-67
2022/06/27 09:12:53;;;;;;;6.68;5.93;;;;;;;;;;4564684;28;20647;-67
2022/06/27 09:15:05;;;;;;;6.22;5.43;;;;;;;;;;4565428;28;20182;-67
2022/06/27 09:17:16;;;;;;;5.95;5.13;;;;;;;;;;4564033;28;20034;-67
2022/06/27 09:19:47;;;;;;;5.53;4.80;;;;;;;;;;4563642;28;20032;-67
2022/06/27 09:22:12;;;;;;;7.15;5.30;;;;;;;;;;4563832;28;20040;-67
2022/06/27 09:24:23;;;;;;;5.30;4.78;;;;;;;;;;4562103;28;20041;-67
2022/06/27 09:26:39;;;;;;;5.57;4.97;;;;;;;;;;4563235;28;20044;-67
2022/06/27 09:29:00;;;;;;;6.13;5.53;;;;;;;;;;4564731;28;20097;-67
2022/06/27 09:31:14;;;;;;;7.03;5.45;;;;;;;;;;4562647;28;20043;-67
2022/06/27 09:33:26;;;;;;;5.80;5.20;;;;;;;;;;4564241;28;20546;-67
2022/06/27 09:35:38;;;;;;;6.15;5.45;;;;;;;;;;4561031;28;20033;-67
2022/06/27 09:37:57;;;;;;;6.40;5.53;;;;;;;;;;4561103;28;20028;-67
2022/06/27 09:40:09;;;;;;;6.80;5.43;;;;;;;;;;4562482;28;20115;-67
2022/06/27 09:42:20;;;;;;;7.20;6.50;;;;;;;;;;4567174;28;20033;-67
2022/06/27 09:44:32;;;;;;;7.80;6.82;;;;;;;;;;4566912;28;20047;-67
2022/06/27 09:46:50;;;;;;;7.45;6.55;;;;;;;;;;4563201;28;20020;-67
2022/06/27 09:49:03;;;;;;;6.95;6.25;;;;;;;;;;4563965;28;20032;-67
2022/06/27 09:51:17;;;;;;;7.90;7.10;;;;;;;;;;4565742;28;20045;-67
2022/06/27 09:53:27;;;;;;;7.38;6.60;;;;;;;;;;4564907;27;20052;-67
2022/06/27 09:55:38;;;;;;;7.22;6.45;;;;;;;;;;4570465;28;20119;-67
2022/06/27 09:57:50;;;;;;;7.30;6.53;;;;;;;;;;4565637;28;20052;-67
2022/06/27 10:00:01;;;;;;;8.75;6.43;;;;;;;;;;4564735;28;20575;-67
2022/06/27 10:02:13;;;;;;;7.03;6.18;;;;;;;;;;4574315;28;20032;-67
2022/06/27 10:04:25;;;;;;;6.72;5.60;;;;;;;;;;4564501;28;20394;-67
2022/06/27 10:06:39;;;;;;;6.75;6.00;;;;;;;;;;4567851;28;20043;-67
2022/06/27 10:08:51;;;;;;;7.65;6.50;;;;;;;;;;4567137;28;20040;-67
2022/06/27 10:11:08;;;;;;;7.03;6.00;;;;;;;;;;4565753;27;20992;-67
2022/06/27 10:13:18;;;;;;;8.73;7.68;;;;;;;;;;4566391;28;20035;-67
2022/06/27 10:15:30;;;;;;;9.57;8.18;;;;;;;;;;4565884;27;20039;-67
2022/06/27 10:17:50;;;;;;;8.65;7.75;;;;;;;;;;4565285;28;21446;-67
2022/06/27 10:20:06;;;;;;;8.90;7.93;;;;;;;;;;4566247;28;20108;-67
2022/06/27 10:22:25;;;;;;;9.85;8.38;;;;;;;;;;4566855;28;20025;-67
2022/06/27 10:24:35;;;;;;;8.32;7.53;;;;;;;;;;4569787;28;20033;-67
2022/06/27 10:26:47;;;;;;;8.32;7.53;;;;;;;;;;4566022;28;20473;-67
2022/06/27 10:29:33;;;;;;;7.93;7.13;;;;;;;;;;4568903;28;20036;-67
2022/06/27 10:31:45;;;;;;;7.95;7.15;;;;;;;;;;4569549;28;20109;-67
2022/06/27 10:33:55;;;;;;;8.05;7.25;;;;;;;;;;4567155;28;20615;-67
2022/06/27 10:38:22;;;;;;;8.85;7.35;;;;;;;;;;4563976;28;20060;-67
2022/06/27 10:40:41;;;;;;;8.40;7.53;;;;;;;;;;4568228;28;20771;-66
2022/06/27 10:42:53;;;;;;;8.32;7.35;;;;;;;;;;4573097;28;20040;-67
2022/06/27 10:45:19;;;;;;;9.40;7.57;;;;;;;;;;4566098;28;20206;-67
2022/06/27 10:47:33;;;;;;;8.10;7.15;;;;;;;;;;4564120;28;20052;-67
2022/06/27 10:49:44;;;;;;;8.90;7.43;;;;;;;;;;4564427;28;20187;-67
2022/06/27 10:52:21;;;;;;;8.30;7.20;;;;;;;;;;4565621;27;20047;-67
2022/06/27 10:54:36;;;;;;;8.60;7.50;;;;;;;;;;4565487;28;20048;-67
2022/06/27 10:56:48;;;;;;;10.38;8.30;;;;;;;;;;4566127;28;20622;-67
2022/06/27 10:59:01;;;;;;;10.48;8.73;;;;;;;;;;4566772;27;20058;-68
2022/06/27 11:01:14;;;;;;;9.60;8.10;;;;;;;;;;4563091;28;20584;-67
2022/06/27 11:03:26;;;;;;;10.18;8.38;;;;;;;;;;4563028;28;20066;-67
2022/06/27 11:05:58;;;;;;;9.40;7.93;;;;;;;;;;4564532;28;20048;-67
2022/06/27 11:08:09;;;;;;;10.23;8.60;;;;;;;;;;4573849;27;20039;-67
2022/06/27 11:10:21;;;;;;;10.32;8.05;;;;;;;;;;4573488;28;20046;-67
2022/06/27 11:12:34;;;;;;;10.32;8.25;;;;;;;;;;4564704;28;20048;-67
2022/06/27 11:14:58;;;;;;;10.68;8.82;;;;;;;;;;4565094;28;20785;-68
2022/06/27 11:17:46;;;;;;;12.20;8.55;;;;;;;;;;4564752;27;20020;-67
2022/06/27 11:20:11;;;;;;;10.45;8.75;;;;;;;;;;4563666;28;20057;-67
2022/06/27 11:22:22;;;;;;;10.90;8.35;;;;;;;;;;4564800;27;20037;-67
2022/06/27 11:24:32;;;;;;;10.10;8.73;;;;;;;;;;4563876;28;20499;-67
2022/06/27 11:27:05;;;;;;;10.70;8.60;;;;;;;;;;4563566;28;20115;-67
2022/06/27 11:31:59;;;;;;;10.80;8.60;;;;;;;;;;4558671;27;20092;-67
2022/06/27 11:34:10;;;;;;;10.90;8.85;;;;;;;;;;4564424;28;21306;-67
2022/06/27 11:36:20;;;;;;;10.18;8.68;;;;;;;;;;4563761;28;20047;-68
2022/06/27 11:38:41;;;;;;;10.75;8.90;;;;;;;;;;4563528;27;20041;-67
2022/06/27 11:41:06;;;;;;;11.35;8.95;;;;;;;;;;4563273;28;20036;-67
2022/06/27 11:43:17;;;;;;;11.68;9.55;;;;;;;;;;4562950;28;20040;-67
2022/06/27 11:45:38;;;;;;;11.80;9.35;;;;;;;;;;4565427;28;20485;-67
2022/06/27 11:47:48;;;;;;;11.57;9.35;;;;;;;;;;4563179;28;20035;-67
2022/06/27 11:50:06;;;;;;;12.18;9.50;;;;;;;;;;4562457;28;20044;-68
2022/06/27 11:52:17;;;;;;;11.20;9.07;;;;;;;;;;4549342;28;20032;-67
2022/06/27 11:54:38;;;;;;;12.05;9.57;;;;;;;;;;4565375;28;20119;-67
2022/06/27 11:56:50;;;;;;;12.32;9.57;;;;;;;;;;4561594;28;20024;-67
2022/06/27 11:59:01;;;;;;;11.75;9.27;;;;;;;;;;4563984;28;20037;-68
2022/06/27 12:01:11;;;;;;;10.63;8.73;;;;;;;;;;4564185;28;20532;-68
2022/06/27 12:03:22;;;;;;;12.10;9.23;;;;;;;;;;4565393;27;20546;-68
2022/06/27 12:05:34;;;;;;;10.82;9.35;;;;;;;;;;4562624;28;20037;-67
2022/06/27 12:07:51;;;;;;;13.00;9.50;;;;;;;;;;4565085;28;20036;-68
2022/06/27 12:10:01;;;;;;;10.75;8.60;;;;;;;;;;4564127;28;20063;-68
2022/06/27 12:12:32;;;;;;;10.57;8.65;;;;;;;;;;4564218;28;20124;-68
2022/06/27 12:14:45;;;;;;;10.63;8.98;;;;;;;;;;4562006;28;20040;-68
2022/06/27 12:16:57;;;;;;;10.90;8.93;;;;;;;;;;4566120;28;20058;-68
2022/06/27 12:19:09;;;;;;;12.55;9.38;;;;;;;;;;4564862;28;20082;-68
2022/06/27 12:21:22;;;;;;;11.93;9.25;;;;;;;;;;4566104;28;20123;-68
2022/06/27 12:23:33;;;;;;;12.40;9.77;;;;;;;;;;4564880;28;20029;-67
2022/06/27 12:25:43;;;;;;;12.38;10.25;;;;;;;;;;4563862;27;20383;-67
2022/06/27 12:27:53;;;;;;;12.82;9.60;;;;;;;;;;4564829;28;20497;-68
2022/06/27 12:30:04;;;;;;;12.07;10.02;;;;;;;;;;4566522;28;20090;-67
2022/06/27 12:32:15;;;;;;;11.52;9.40;;;;;;;;;;4563255;28;20095;-68
2022/06/27 12:34:27;;;;;;;12.82;9.60;;;;;;;;;;4560929;28;20040;-68
2022/06/27 12:36:37;;;;;;;11.95;9.82;;;;;;;;;;4562701;28;20040;-69
2022/06/27 12:38:48;;;;;;;12.65;9.80;;;;;;;;;;4563543;28;20041;-68
2022/06/27 12:41:15;;;;;;;12.80;10.05;;;;;;;;;;4563717;28;20047;-67
2022/06/27 12:43:25;;;;;;;11.68;9.70;;;;;;;;;;4563812;27;20846;-67
2022/06/27 12:45:37;;;;;;;11.32;9.23;;;;;;;;;;4563784;28;20036;-67
2022/06/27 12:47:48;;;;;;;12.88;10.25;;;;;;;;;;4577096;27;20321;-68
2022/06/27 12:49:58;;;;;;;12.35;9.75;;;;;;;;;;4563489;27;20032;-68
2022/06/27 12:52:09;;;;;;;13.00;10.50;;;;;;;;;;4562975;28;20048;-68
2022/06/27 12:54:19;;;;;;;12.32;10.52;;;;;;;;;;4562851;28;20621;-68
2022/06/27 12:56:30;;;;;;;13.57;10.60;;;;;;;;;;4562985;28;20028;-66
2022/06/27 12:58:40;;;;;;;16.65;13.48;;;;;;;;;;4564666;28;20090;-67
2022/06/27 13:00:51;;;;;;;15.95;12.40;;;;;;;;;;4562108;28;20024;-67
2022/06/27 13:03:01;;;;;;;16.45;13.48;;;;;;;;;;4563114;28;20664;-67
2022/06/27 13:05:12;;;;;;;19.35;13.95;;;;;;;;;;4563292;28;20058;-67
2022/06/27 13:07:22;;;;;;;21.88;15.90;;;;;;;;;;4563242;28;20357;-66
2022/06/27 13:09:33;;;;;;;22.20;16.13;;;;;;;;;;4564463;28;20324;-67
2022/06/27 13:11:44;;;;;;;22.95;17.20;;;;;;;;;;4561502;28;20175;-67
2022/06/27 13:13:54;;;;;;;19.77;15.25;;;;;;;;;;4561204;28;20548;-68
2022/06/27 13:16:06;;;;;;;20.70;16.02;;;;;;;;;;4563856;28;20637;-67
2022/06/27 13:18:17;;;;;;;23.60;16.92;;;;;;;;;;4560195;28;20041;-67
2022/06/27 13:20:27;;;;;;;18.80;14.63;;;;;;;;;;4565240;27;21077;-67
2022/06/27 13:22:38;;;;;;;18.65;13.82;;;;;;;;;;4562479;27;20039;-67
2022/06/27 13:24:49;;;;;;;15.77;12.93;;;;;;;;;;4554111;28;20036;-67
2022/06/27 13:26:59;;;;;;;16.88;13.85;;;;;;;;;;4561742;28;20037;-67
2022/06/27 13:29:09;;;;;;;13.20;10.43;;;;;;;;;;4562471;27;20025;-67
2022/06/27 13:31:21;;;;;;;13.05;10.95;;;;;;;;;;4562254;28;20054;-67